LFRS/NTE METAR and TAF weather

Enter ICAO airport designator
Station Type Date Time Source
LFRS METAR 2019/08/24 17:30 UTC NOAA

LFRS 241730Z AUTO 26009KT CAVOK 30/13 Q1015 NOSIG


Station Type Date Time Source
LFRS Decoded METAR 2019/08/24 17:30 UTC NOAA

Station name not available
Aug 24, 2019 - 01:30 PM EDT / 2019.08.24 1730 UTC
Wind: from the W (260 degrees) at 10 MPH (9 KT):0
Visibility: greater than 7 mile(s):0
Temperature: 86 F (30 C)
Dew Point: 55 F (13 C)
Relative Humidity: 35%
Pressure (altimeter): 29.97 in. Hg (1015 hPa)
ob: LFRS 241730Z AUTO 26009KT CAVOK 30/13 Q1015 NOSIG
cycle: 17

Station Type Date Time Source
LFRS TAF 2019/08/24 18:21 UTC NOAA

TAF LFRS 241700Z 2418/2524 25007KT CAVOK
TEMPO 2500/2507 2000 BR BKN003
BECMG 2507/2509 VRB03KT
BECMG 2522/2524 02010KT

Example: see airport list